Time;durP1;ratioP1;P1;durP2;ratioP2;P2;SDS_P1;SDS_P2;PMS_P1;PMS_P2;Temp;Humidity;BMP_temperature;BMP_pressure;BME280_temperature;BME280_humidity;BME280_pressure;Samples;Min_cycle;Max_cycle;Signal;HPM_P1;HPM_P2
2023/01/10 05:07:51;;;;;;;1.23;1.23;;;5.40;99.90;;;;;;4934956;29;20219;-73
2023/01/10 05:10:17;;;;;;;1.20;1.10;;;5.40;99.90;;;;;;4936417;29;20250;-72
2023/01/10 05:12:44;;;;;;;2.93;2.23;;;5.40;99.90;;;;;;4936371;29;20174;-72
2023/01/10 05:15:09;;;;;;;2.17;1.98;;;5.30;99.90;;;;;;4936019;29;20743;-73
2023/01/10 05:17:35;;;;;;;3.83;2.40;;;5.30;99.90;;;;;;4919294;29;20265;-72
2023/01/10 05:20:01;;;;;;;3.87;1.73;;;5.30;99.90;;;;;;4936251;29;20890;-71
2023/01/10 05:22:26;;;;;;;3.47;1.50;;;5.30;99.90;;;;;;4918811;29;20529;-71
2023/01/10 05:24:52;;;;;;;1.33;1.23;;;5.30;99.90;;;;;;4935705;29;20193;-72
2023/01/10 05:27:18;;;;;;;3.33;1.50;;;5.30;99.90;;;;;;4935956;29;20256;-72
2023/01/10 05:29:43;;;;;;;1.20;1.20;;;5.20;99.90;;;;;;4935986;29;20248;-73
2023/01/10 05:32:09;;;;;;;3.03;1.73;;;5.20;99.90;;;;;;4918970;29;20420;-73
2023/01/10 05:34:35;;;;;;;2.73;2.57;;;5.30;99.90;;;;;;4934578;29;20249;-73
2023/01/10 05:37:00;;;;;;;2.63;1.57;;;5.20;99.90;;;;;;4936024;29;20249;-72
2023/01/10 05:39:26;;;;;;;3.03;1.37;;;5.20;99.90;;;;;;4918697;29;20216;-72
2023/01/10 05:41:51;;;;;;;2.00;1.33;;;5.20;99.90;;;;;;4935893;29;20188;-73
2023/01/10 05:44:17;;;;;;;1.60;1.50;;;5.20;99.90;;;;;;4935054;29;20220;-73
2023/01/10 05:46:42;;;;;;;1.87;1.77;;;5.30;99.90;;;;;;4935907;29;20193;-71
2023/01/10 05:49:08;;;;;;;16.90;1.70;;;5.40;99.90;;;;;;4918735;29;20180;-72
2023/01/10 05:51:34;;;;;;;1.60;1.50;;;5.40;99.90;;;;;;4935771;29;20190;-70
2023/01/10 05:53:59;;;;;;;1.23;1.20;;;5.40;99.90;;;;;;4935279;29;20184;-71
2023/01/10 05:56:25;;;;;;;1.67;1.57;;;5.40;99.90;;;;;;4935732;29;20456;-71
2023/01/10 05:58:52;;;;;;;1.77;1.70;;;5.50;99.90;;;;;;4918500;29;20644;-72
2023/01/10 06:01:17;;;;;;;2.42;1.45;;;5.60;99.90;;;;;;4935804;29;20942;-71
2023/01/10 06:03:43;;;;;;;1.63;1.53;;;5.60;99.90;;;;;;4935282;29;20201;-71
2023/01/10 06:06:09;;;;;;;2.00;1.85;;;5.60;99.90;;;;;;4918508;29;20200;-70
2023/01/10 06:08:35;;;;;;;5.63;1.67;;;5.60;99.90;;;;;;4938001;29;20184;-66
2023/01/10 06:11:05;;;;;;;2.80;2.00;;;5.60;99.90;;;;;;4939317;29;20453;-69
2023/01/10 06:13:31;;;;;;;1.00;1.00;;;5.60;99.90;;;;;;4933782;29;20192;-68
2023/01/10 06:15:56;;;;;;;1.97;1.67;;;5.60;99.90;;;;;;4931379;29;20198;-71
2023/01/10 06:18:22;;;;;;;1.47;1.33;;;5.60;99.90;;;;;;4939564;29;20328;-69
2023/01/10 06:20:48;;;;;;;3.70;1.40;;;5.70;99.90;;;;;;4949353;29;20185;-71
2023/01/10 06:23:13;;;;;;;2.13;1.20;;;5.60;99.90;;;;;;4938853;29;20169;-69
2023/01/10 06:25:40;;;;;;;1.93;1.70;;;5.70;99.90;;;;;;4922129;29;20197;-69
2023/01/10 06:28:10;;;;;;;1.60;1.50;;;5.70;99.90;;;;;;4922224;29;20640;-69
2023/01/10 06:30:37;;;;;;;1.38;1.13;;;5.70;99.90;;;;;;4920604;29;20207;-66
2023/01/10 06:33:04;;;;;;;1.77;1.17;;;5.70;99.90;;;;;;4938765;29;20180;-71
2023/01/10 06:35:31;;;;;;;0.80;0.80;;;5.70;99.90;;;;;;4938741;29;20749;-69
2023/01/10 06:37:58;;;;;;;2.80;0.98;;;5.70;99.90;;;;;;4938727;29;20182;-69
2023/01/10 06:40:24;;;;;;;0.93;0.88;;;5.70;99.90;;;;;;4938733;29;20654;-67
2023/01/10 06:42:50;;;;;;;2.58;1.17;;;5.60;99.90;;;;;;4938574;29;20175;-67
2023/01/10 06:45:16;;;;;;;2.17;1.97;;;5.70;99.90;;;;;;4921626;29;20484;-68
2023/01/10 06:47:42;;;;;;;1.17;1.08;;;5.70;99.90;;;;;;4938932;29;20174;-68
2023/01/10 06:50:08;;;;;;;1.50;1.00;;;5.70;99.90;;;;;;4938760;29;20508;-68
2023/01/10 06:52:34;;;;;;;2.10;1.30;;;5.70;99.90;;;;;;4938516;29;20206;-69
2023/01/10 06:55:00;;;;;;;4.43;1.17;;;5.70;99.90;;;;;;4938550;29;20212;-69
2023/01/10 06:57:27;;;;;;;1.43;1.33;;;5.70;99.90;;;;;;4938713;29;20446;-69
2023/01/10 06:59:53;;;;;;;5.22;1.60;;;5.70;99.90;;;;;;4938655;29;20168;-69
2023/01/10 07:02:19;;;;;;;2.90;1.10;;;5.60;99.90;;;;;;4938670;29;20172;-69
2023/01/10 07:04:44;;;;;;;1.27;1.10;;;5.60;99.90;;;;;;4937751;29;20496;-68
2023/01/10 07:07:10;;;;;;;4.67;1.30;;;5.60;99.90;;;;;;4938329;29;20428;-68
2023/01/10 07:09:36;;;;;;;1.33;1.13;;;5.60;99.90;;;;;;4938510;29;20529;-68
2023/01/10 07:12:01;;;;;;;1.73;1.20;;;5.50;99.90;;;;;;4938308;29;20659;-68
2023/01/10 07:14:27;;;;;;;2.53;1.20;;;5.50;99.90;;;;;;4937258;29;20204;-68
2023/01/10 07:16:52;;;;;;;1.13;0.80;;;5.50;99.90;;;;;;4921091;29;20982;-68
2023/01/10 07:19:18;;;;;;;6.37;1.13;;;5.50;99.90;;;;;;4937621;29;20528;-69
2023/01/10 07:21:44;;;;;;;2.08;1.17;;;5.50;99.90;;;;;;4938282;29;20538;-68
2023/01/10 07:24:10;;;;;;;1.00;1.00;;;5.50;99.90;;;;;;4937622;29;20213;-68
2023/01/10 07:26:36;;;;;;;2.00;1.20;;;5.60;99.90;;;;;;4938133;29;20411;-68
2023/01/10 07:29:01;;;;;;;1.63;0.83;;;5.60;99.90;;;;;;4938036;29;20200;-68
2023/01/10 07:31:27;;;;;;;2.77;1.70;;;5.60;99.90;;;;;;4938272;29;20184;-69
2023/01/10 07:33:53;;;;;;;9.85;2.65;;;5.70;99.90;;;;;;4937411;29;20276;-69
2023/01/10 07:36:19;;;;;;;0.97;0.97;;;5.70;99.90;;;;;;4938105;29;20710;-69
2023/01/10 07:38:45;;;;;;;0.98;0.98;;;5.80;99.90;;;;;;4937739;29;20198;-69
2023/01/10 07:41:10;;;;;;;4.00;2.00;;;5.80;99.90;;;;;;4937814;29;20255;-69
2023/01/10 07:43:36;;;;;;;3.03;1.20;;;5.80;99.90;;;;;;4937332;29;20259;-68
2023/01/10 07:46:04;;;;;;;1.53;1.40;;;5.90;99.90;;;;;;4937701;29;20182;-69
2023/01/10 07:48:30;;;;;;;2.38;1.30;;;5.90;99.90;;;;;;4937498;29;20538;-69
2023/01/10 07:50:57;;;;;;;1.53;1.43;;;6.00;99.90;;;;;;4937708;29;20184;-68
2023/01/10 07:53:23;;;;;;;1.65;1.13;;;5.90;99.90;;;;;;4920026;29;20919;-69
2023/01/10 07:55:49;;;;;;;8.67;2.37;;;6.00;99.90;;;;;;4937482;29;20218;-69
2023/01/10 07:58:15;;;;;;;2.87;1.90;;;6.00;99.90;;;;;;4937530;29;20428;-69
2023/01/10 08:00:40;;;;;;;3.50;2.17;;;6.10;99.90;;;;;;4937615;29;20413;-69
2023/01/10 08:03:06;;;;;;;3.13;2.10;;;6.00;99.90;;;;;;4937117;29;20165;-69
2023/01/10 08:05:31;;;;;;;5.20;1.20;;;6.10;99.90;;;;;;4937416;29;20197;-69
2023/01/10 08:08:09;;;;;;;5.73;1.97;;;6.20;99.90;;;;;;4937656;29;20215;-69
2023/01/10 08:10:36;;;;;;;3.67;1.88;;;6.20;99.90;;;;;;4937377;29;20271;-69
2023/01/10 08:13:02;;;;;;;5.78;1.55;;;6.30;99.90;;;;;;4936985;29;20181;-69
2023/01/10 08:15:28;;;;;;;5.27;1.40;;;6.30;99.90;;;;;;4937149;29;20550;-69
2023/01/10 08:17:53;;;;;;;2.93;1.53;;;6.40;99.90;;;;;;4937117;29;20259;-69
2023/01/10 08:20:19;;;;;;;2.80;0.80;;;6.40;99.90;;;;;;4937383;29;20416;-69
2023/01/10 08:22:44;;;;;;;4.50;1.57;;;6.40;99.90;;;;;;4936852;29;20211;-69
2023/01/10 08:25:10;;;;;;;1.97;1.70;;;6.40;99.90;;;;;;4919945;29;20194;-69
2023/01/10 08:27:36;;;;;;;1.50;1.10;;;6.40;99.90;;;;;;4936876;29;20174;-69
2023/01/10 08:30:03;;;;;;;2.83;1.53;;;6.40;99.90;;;;;;4937022;29;20471;-69
2023/01/10 08:32:28;;;;;;;2.17;1.40;;;6.50;99.90;;;;;;4936050;29;20183;-69
2023/01/10 08:34:54;;;;;;;1.60;1.33;;;6.50;99.90;;;;;;4936456;29;20201;-69
2023/01/10 08:37:19;;;;;;;1.87;1.20;;;6.60;99.90;;;;;;4936891;29;20640;-69
2023/01/10 08:39:45;;;;;;;1.73;1.63;;;6.60;99.90;;;;;;4937054;29;20185;-69
2023/01/10 08:42:10;;;;;;;0.93;0.93;;;6.70;99.90;;;;;;4936816;29;20174;-69
2023/01/10 08:44:36;;;;;;;2.43;1.73;;;6.70;99.90;;;;;;4936200;29;20204;-68
2023/01/10 08:47:02;;;;;;;2.00;1.77;;;6.70;99.90;;;;;;4936702;29;20177;-69
2023/01/10 08:49:27;;;;;;;2.17;1.20;;;6.70;99.90;;;;;;4936885;29;20555;-69
2023/01/10 08:51:53;;;;;;;2.63;1.53;;;6.70;99.90;;;;;;4936801;29;20181;-68
2023/01/10 08:54:18;;;;;;;3.57;1.67;;;6.70;99.90;;;;;;4931585;29;20280;-68
2023/01/10 08:56:44;;;;;;;2.97;1.90;;;6.80;99.90;;;;;;4905770;29;20174;-68
2023/01/10 08:59:09;;;;;;;2.50;1.83;;;6.80;99.90;;;;;;4917485;29;20181;-69
2023/01/10 09:01:35;;;;;;;14.63;2.10;;;6.80;99.90;;;;;;4936487;29;20209;-69
2023/01/10 09:04:01;;;;;;;5.80;1.37;;;6.80;99.90;;;;;;4936066;29;20197;-69
2023/01/10 09:06:27;;;;;;;3.72;1.42;;;6.80;99.90;;;;;;4936258;29;20193;-69
2023/01/10 09:08:52;;;;;;;3.30;1.30;;;6.80;99.90;;;;;;4936392;29;20689;-69
2023/01/10 09:11:18;;;;;;;1.27;1.27;;;6.90;99.90;;;;;;4936556;29;20185;-69
2023/01/10 09:13:47;;;;;;;4.00;1.63;;;6.90;99.90;;;;;;4935993;29;20232;-69
2023/01/10 09:16:12;;;;;;;1.15;1.10;;;6.80;99.90;;;;;;4936285;29;20204;-69
2023/01/10 09:18:38;;;;;;;1.57;1.03;;;6.90;99.90;;;;;;4936362;29;20169;-69
2023/01/10 09:21:04;;;;;;;3.23;1.03;;;7.00;99.90;;;;;;4936455;29;20252;-69
2023/01/10 09:23:29;;;;;;;1.70;1.27;;;7.10;99.90;;;;;;4935842;29;20181;-69
2023/01/10 09:25:56;;;;;;;3.57;1.40;;;7.10;99.90;;;;;;4936111;29;20640;-69
2023/01/10 09:28:25;;;;;;;1.15;1.05;;;7.20;99.90;;;;;;4936051;29;20195;-69
2023/01/10 09:30:51;;;;;;;0.95;0.93;;;7.30;99.90;;;;;;4936079;29;20260;-69
2023/01/10 09:33:17;;;;;;;5.50;1.17;;;7.40;99.90;;;;;;4935713;29;20256;-69
2023/01/10 09:35:43;;;;;;;2.00;1.10;;;7.50;99.90;;;;;;4935931;29;20464;-69
2023/01/10 09:38:15;;;;;;;3.50;2.00;;;7.60;99.90;;;;;;4935881;29;20691;-69
2023/01/10 09:41:11;;;;;;;5.95;2.72;;;7.60;99.90;;;;;;4917201;29;20234;-69
2023/01/10 09:43:54;;;;;;;1.00;0.80;;;7.70;99.90;;;;;;4922527;29;20568;-66
2023/01/10 09:47:06;;;;;;;1.20;1.15;;;7.80;99.90;;;;;;4932568;29;20201;-68
2023/01/10 09:49:56;;;;;;;4.53;1.40;;;7.80;99.90;;;;;;4921267;29;20205;-69
2023/01/10 09:52:36;;;;;;;3.33;1.52;;;7.70;99.90;;;;;;4921017;29;20185;-69
2023/01/10 09:55:15;;;;;;;2.75;1.17;;;7.70;99.90;;;;;;4920710;29;20284;-68
2023/01/10 09:57:40;;;;;;;1.35;0.88;;;7.60;99.90;;;;;;4926862;29;20205;-69
2023/01/10 10:00:08;;;;;;;1.50;1.37;;;7.50;99.90;;;;;;4922583;29;20177;-69
2023/01/10 10:02:41;;;;;;;1.40;1.02;;;7.40;99.90;;;;;;4939528;29;20184;-69
2023/01/10 10:05:27;;;;;;;1.48;1.38;;;7.30;99.90;;;;;;4939744;29;20200;-70
2023/01/10 10:07:56;;;;;;;2.60;1.17;;;7.20;99.90;;;;;;4939674;29;20213;-68
2023/01/10 10:10:42;;;;;;;2.05;1.15;;;7.20;99.90;;;;;;4939543;29;20229;-68
2023/01/10 10:13:13;;;;;;;0.70;0.70;;;7.20;99.90;;;;;;4939054;29;20589;-68
2023/01/10 10:15:56;;;;;;;1.88;1.40;;;7.20;99.90;;;;;;4939523;29;20211;-68
2023/01/10 10:18:41;;;;;;;1.30;1.20;;;7.20;99.90;;;;;;4939583;29;20224;-68
2023/01/10 10:21:27;;;;;;;1.27;1.23;;;7.20;99.90;;;;;;4939354;29;20177;-67
2023/01/10 10:24:13;;;;;;;1.98;1.00;;;7.30;99.90;;;;;;4938971;29;20589;-67
2023/01/10 10:26:53;;;;;;;2.80;1.50;;;7.40;99.90;;;;;;4938948;29;20177;-68
2023/01/10 10:29:24;;;;;;;2.13;1.20;;;7.40;99.90;;;;;;4939440;29;20181;-68
2023/01/10 10:32:02;;;;;;;3.28;1.30;;;7.50;99.90;;;;;;4939286;29;20240;-67
2023/01/10 10:34:49;;;;;;;3.20;1.13;;;7.60;99.90;;;;;;4921199;29;20208;-68
2023/01/10 10:37:31;;;;;;;1.80;1.00;;;7.70;99.90;;;;;;4939073;29;20176;-68
2023/01/10 10:40:21;;;;;;;1.10;1.00;;;7.70;99.90;;;;;;4939025;29;20174;-68
2023/01/10 10:42:50;;;;;;;0.70;0.70;;;7.60;99.90;;;;;;4938108;29;20198;-67
2023/01/10 10:45:38;;;;;;;4.72;1.17;;;7.60;99.90;;;;;;4938847;29;20248;-67
2023/01/10 10:48:18;;;;;;;3.13;1.10;;;7.70;99.90;;;;;;4939060;29;20531;-68
2023/01/10 10:51:11;;;;;;;1.50;0.93;;;7.70;99.90;;;;;;4939316;29;20177;-69
2023/01/10 10:53:36;;;;;;;3.08;0.98;;;7.60;99.90;;;;;;4920552;29;20188;-68
2023/01/10 10:56:05;;;;;;;2.43;1.40;;;7.60;99.90;;;;;;4938293;29;20563;-69
2023/01/10 10:58:32;;;;;;;1.98;1.40;;;7.70;99.90;;;;;;4938760;29;20170;-68
2023/01/10 11:00:59;;;;;;;1.85;0.85;;;7.70;99.90;;;;;;4938732;29;20498;-68
2023/01/10 11:03:48;;;;;;;1.10;1.10;;;7.70;99.90;;;;;;4938443;29;20177;-68
2023/01/10 11:06:16;;;;;;;1.10;1.10;;;7.90;99.90;;;;;;4938318;29;20276;-70
2023/01/10 11:08:44;;;;;;;1.63;0.95;;;7.90;99.90;;;;;;4921437;29;20184;-70
2023/01/10 11:11:33;;;;;;;0.82;0.82;;;8.00;99.90;;;;;;4938767;29;20505;-70
2023/01/10 11:14:06;;;;;;;1.48;0.77;;;8.00;99.90;;;;;;4938075;29;20336;-69
2023/01/10 11:16:40;;;;;;;1.05;1.00;;;8.10;99.90;;;;;;4938479;29;20284;-69
2023/01/10 11:19:08;;;;;;;1.02;0.80;;;8.10;99.90;;;;;;4921048;29;20217;-70
2023/01/10 11:21:34;;;;;;;1.00;0.95;;;8.00;99.90;;;;;;4938215;29;20195;-68
2023/01/10 11:24:00;;;;;;;1.75;1.52;;;8.00;99.90;;;;;;4938035;29;20197;-66
2023/01/10 11:26:35;;;;;;;1.17;1.05;;;7.90;99.90;;;;;;4938579;29;20212;-67
2023/01/10 11:29:23;;;;;;;1.38;1.17;;;7.90;99.90;;;;;;4934434;29;20188;-72
2023/01/10 11:31:50;;;;;;;2.50;0.95;;;7.80;99.90;;;;;;4938267;29;20174;-69
2023/01/10 11:34:31;;;;;;;2.97;1.27;;;7.80;99.90;;;;;;4937808;29;20273;-69
2023/01/10 11:37:19;;;;;;;1.40;1.30;;;7.80;99.90;;;;;;4938178;29;20280;-69
2023/01/10 11:39:45;;;;;;;1.02;0.98;;;7.80;99.90;;;;;;4937965;29;20657;-69
2023/01/10 11:42:23;;;;;;;3.93;1.10;;;7.90;99.90;;;;;;4932457;29;20182;-70
2023/01/10 11:44:48;;;;;;;1.88;1.10;;;7.90;99.90;;;;;;4930741;29;20727;-71
2023/01/10 11:47:19;;;;;;;1.97;0.90;;;8.00;99.90;;;;;;4920920;29;20320;-69
2023/01/10 11:49:46;;;;;;;0.95;0.90;;;8.10;99.90;;;;;;4920971;29;20232;-71
2023/01/10 11:52:26;;;;;;;1.00;0.98;;;8.20;99.90;;;;;;4937966;29;20188;-69
2023/01/10 11:54:55;;;;;;;0.95;0.95;;;8.40;99.90;;;;;;4937262;29;20246;-70
2023/01/10 11:57:25;;;;;;;2.15;0.85;;;8.50;99.90;;;;;;4937412;29;20185;-70
2023/01/10 11:59:57;;;;;;;1.20;1.10;;;8.60;99.90;;;;;;4937922;29;20168;-69
2023/01/10 12:02:30;;;;;;;2.05;1.15;;;8.60;99.90;;;;;;4937668;29;20180;-72
2023/01/10 12:04:59;;;;;;;3.95;0.98;;;8.70;99.90;;;;;;4937094;29;20204;-71
2023/01/10 12:07:24;;;;;;;2.53;1.85;;;8.80;99.90;;;;;;4937408;29;20648;-70
2023/01/10 12:10:01;;;;;;;1.90;0.80;;;8.80;99.90;;;;;;4937143;29;20186;-71
2023/01/10 12:12:32;;;;;;;0.77;0.77;;;8.80;99.90;;;;;;4937478;29;20173;-71
2023/01/10 12:15:00;;;;;;;1.35;1.15;;;8.80;99.90;;;;;;4936821;29;20201;-70
2023/01/10 12:17:35;;;;;;;1.63;1.10;;;8.70;99.90;;;;;;4937278;29;20162;-70
2023/01/10 12:20:03;;;;;;;1.95;1.05;;;8.60;99.90;;;;;;4937427;29;20170;-70
2023/01/10 12:22:37;;;;;;;1.70;0.80;;;8.60;99.90;;;;;;4937062;29;20253;-69
2023/01/10 12:25:14;;;;;;;2.35;1.45;;;8.50;99.90;;;;;;4937005;29;20203;-70
2023/01/10 12:27:41;;;;;;;1.58;1.20;;;8.40;99.90;;;;;;4935304;29;20177;-69
2023/01/10 12:30:27;;;;;;;1.35;1.23;;;8.40;99.90;;;;;;4918065;29;20170;-69
2023/01/10 12:32:55;;;;;;;1.25;1.08;;;8.40;99.90;;;;;;4917236;29;20193;-68
2023/01/10 12:35:48;;;;;;;1.92;1.23;;;8.40;99.90;;;;;;4936971;29;20697;-71
2023/01/10 12:38:19;;;;;;;1.55;0.80;;;8.30;99.90;;;;;;4937329;29;20174;-69
2023/01/10 12:40:51;;;;;;;2.03;1.38;;;8.40;99.90;;;;;;4937010;29;20166;-70
2023/01/10 12:46:25;;;;;;;1.02;0.68;;;8.80;99.90;;;;;;4936555;29;20176;-69
2023/01/10 12:49:05;;;;;;;1.40;1.30;;;8.90;99.90;;;;;;4936784;29;20186;-69
2023/01/10 12:51:33;;;;;;;3.53;0.93;;;9.00;99.90;;;;;;4937006;29;20177;-70
2023/01/10 12:54:11;;;;;;;0.77;0.73;;;9.20;99.90;;;;;;4919175;29;20298;-70
2023/01/10 12:56:38;;;;;;;1.15;0.80;;;9.30;99.90;;;;;;4936794;29;20243;-69
2023/01/10 12:59:13;;;;;;;1.52;0.82;;;9.40;99.90;;;;;;4936704;29;20170;-69
2023/01/10 13:01:42;;;;;;;1.08;1.00;;;9.40;99.90;;;;;;4936164;29;20180;-70
2023/01/10 13:04:17;;;;;;;3.03;2.83;;;9.30;99.90;;;;;;4918922;29;20280;-71
2023/01/10 13:06:43;;;;;;;0.77;0.77;;;9.20;99.90;;;;;;4936388;29;20299;-70
2023/01/10 13:09:24;;;;;;;2.08;0.80;;;9.30;99.90;;;;;;4936530;29;20208;-69
2023/01/10 13:12:07;;;;;;;2.15;0.77;;;9.30;99.90;;;;;;4936287;29;20182;-70
2023/01/10 13:15:00;;;;;;;1.10;0.70;;;9.30;99.90;;;;;;4935852;29;20565;-70
2023/01/10 13:17:39;;;;;;;0.90;0.90;;;9.20;99.90;;;;;;4935955;29;20237;-71
2023/01/10 13:20:23;;;;;;;2.90;1.20;;;9.20;99.90;;;;;;4936370;29;20165;-70
2023/01/10 13:22:59;;;;;;;2.92;0.70;;;9.10;99.90;;;;;;4935978;29;20170;-70
2023/01/10 13:25:33;;;;;;;2.28;0.90;;;9.10;99.90;;;;;;4935933;29;20205;-71
2023/01/10 13:28:22;;;;;;;2.05;0.80;;;9.00;99.90;;;;;;4935944;29;20189;-70
2023/01/10 13:30:53;;;;;;;1.70;0.82;;;8.90;99.90;;;;;;4917043;29;20336;-71
2023/01/10 13:33:23;;;;;;;1.08;0.98;;;8.80;99.90;;;;;;4916918;29;20604;-70
2023/01/10 13:35:51;;;;;;;4.25;1.30;;;8.70;99.90;;;;;;4917124;29;20719;-70
2023/01/10 13:38:36;;;;;;;1.30;0.88;;;8.70;99.90;;;;;;4917361;29;20253;-70
2023/01/10 13:43:17;;;;;;;1.05;0.95;;;8.70;99.90;;;;;;4925717;29;20177;-71
2023/01/10 13:44:12;;;;;;;2.25;1.40;;;8.60;99.90;;;;;;4935349;29;20551;-71
2023/01/10 13:46:43;;;;;;;0.70;0.70;;;8.60;99.90;;;;;;4936151;29;20177;-71
2023/01/10 13:49:09;;;;;;;0.70;0.70;;;8.50;99.90;;;;;;4935730;29;20181;-70
2023/01/10 13:51:35;;;;;;;0.70;0.60;;;8.50;99.90;;;;;;4935919;29;20212;-70
2023/01/10 13:54:22;;;;;;;1.50;1.40;;;8.50;99.90;;;;;;4935537;29;20592;-71
2023/01/10 13:56:48;;;;;;;1.67;0.82;;;8.40;99.90;;;;;;4935460;29;20213;-71
2023/01/10 14:02:28;;;;;;;1.15;0.60;;;8.40;99.90;;;;;;4935463;29;20253;-71
2023/01/10 14:04:59;;;;;;;1.70;0.80;;;8.40;99.90;;;;;;4935553;29;20220;-70
2023/01/10 14:07:34;;;;;;;1.10;1.10;;;8.50;99.90;;;;;;4935891;29;20220;-70
2023/01/10 14:10:21;;;;;;;2.30;1.13;;;8.60;99.90;;;;;;4935716;29;20648;-70
2023/01/10 14:13:07;;;;;;;1.02;0.55;;;8.60;99.90;;;;;;4935521;29;20236;-69
2023/01/10 14:15:39;;;;;;;1.05;0.85;;;8.60;99.90;;;;;;4935596;29;20248;-70
2023/01/10 14:18:21;;;;;;;0.95;0.75;;;8.60;99.90;;;;;;4935744;29;20169;-70
2023/01/10 14:21:05;;;;;;;0.40;0.40;;;8.50;99.90;;;;;;4935830;29;20166;-69
2023/01/10 14:23:34;;;;;;;1.27;1.17;;;8.50;99.90;;;;;;4935197;29;20581;-71
2023/01/10 14:26:01;;;;;;;0.70;0.70;;;8.50;99.90;;;;;;4935870;29;20177;-70
2023/01/10 14:28:30;;;;;;;0.95;0.85;;;8.40;99.90;;;;;;4936228;29;20694;-70
2023/01/10 14:31:17;;;;;;;5.35;1.73;;;8.40;99.90;;;;;;4923367;29;20182;-70
2023/01/10 14:33:43;;;;;;;3.45;1.85;;;8.40;99.90;;;;;;4939024;29;20774;-70
2023/01/10 14:36:17;;;;;;;1.20;1.10;;;8.40;99.90;;;;;;4938854;29;20233;-70
2023/01/10 14:38:46;;;;;;;2.70;1.08;;;8.40;99.90;;;;;;4922092;29;20178;-70
2023/01/10 14:41:16;;;;;;;1.85;1.38;;;8.40;99.90;;;;;;4939657;29;20182;-70
2023/01/10 14:43:56;;;;;;;2.05;0.65;;;8.50;99.90;;;;;;4938401;29;20184;-70
2023/01/10 14:46:48;;;;;;;2.65;0.82;;;8.50;99.90;;;;;;4939410;29;20648;-69
2023/01/10 14:49:34;;;;;;;1.10;1.00;;;8.40;99.90;;;;;;4939343;29;20261;-70
2023/01/10 14:52:14;;;;;;;1.00;0.75;;;8.30;99.90;;;;;;4938877;29;20172;-70
2023/01/10 14:54:41;;;;;;;1.25;1.15;;;8.30;99.90;;;;;;4938192;29;20663;-70
2023/01/10 14:57:18;;;;;;;6.47;1.00;;;8.20;99.90;;;;;;4938423;29;20188;-70
2023/01/10 14:59:45;;;;;;;0.85;0.65;;;8.20;99.90;;;;;;4938678;29;20702;-70
2023/01/10 15:02:26;;;;;;;3.40;1.60;;;8.10;99.90;;;;;;4938589;29;20169;-70
2023/01/10 15:05:16;;;;;;;1.48;0.70;;;8.00;99.90;;;;;;4938339;29;20201;-70
2023/01/10 15:07:42;;;;;;;1.20;0.65;;;8.00;99.90;;;;;;4938659;29;20213;-70
2023/01/10 15:10:28;;;;;;;2.10;1.00;;;7.90;99.90;;;;;;4938278;29;20209;-71
2023/01/10 15:12:59;;;;;;;1.95;1.73;;;7.80;99.90;;;;;;4938075;29;20260;-71
2023/01/10 15:15:33;;;;;;;1.67;0.60;;;7.70;99.90;;;;;;4938188;29;20669;-69
2023/01/10 15:18:01;;;;;;;2.60;1.15;;;7.60;99.90;;;;;;4938299;29;20165;-72
2023/01/10 15:20:28;;;;;;;2.60;0.90;;;7.60;99.90;;;;;;4938505;29;20183;-72
2023/01/10 15:22:59;;;;;;;0.88;0.85;;;7.50;99.90;;;;;;4938202;29;20169;-71
2023/01/10 15:25:27;;;;;;;1.88;0.85;;;7.50;99.90;;;;;;4938049;29;20201;-71
2023/01/10 15:27:53;;;;;;;0.60;0.60;;;7.50;99.90;;;;;;4938268;29;20185;-71
2023/01/10 15:30:28;;;;;;;0.80;0.80;;;7.40;99.90;;;;;;4938430;29;20232;-71
2023/01/10 15:33:08;;;;;;;1.35;1.20;;;7.40;99.90;;;;;;4937978;29;20172;-72
2023/01/10 15:35:34;;;;;;;0.88;0.63;;;7.30;99.90;;;;;;4937840;29;20220;-71
2023/01/10 15:38:11;;;;;;;0.63;0.63;;;7.30;99.90;;;;;;4920809;29;20170;-71
2023/01/10 15:40:38;;;;;;;2.25;1.08;;;7.20;99.90;;;;;;4937620;29;20500;-69
2023/01/10 15:43:35;;;;;;;1.38;0.95;;;7.10;99.90;;;;;;4937504;29;20629;-72
2023/01/10 15:46:03;;;;;;;3.13;0.90;;;7.10;99.90;;;;;;4937942;29;20176;-72
2023/01/10 15:48:39;;;;;;;1.48;0.90;;;7.10;99.90;;;;;;4937572;29;20176;-70
2023/01/10 15:51:14;;;;;;;1.00;1.00;;;7.10;99.90;;;;;;4920687;29;20276;-70
2023/01/10 15:53:56;;;;;;;2.50;1.60;;;7.00;99.90;;;;;;4937276;29;20180;-70
2023/01/10 15:56:29;;;;;;;4.50;1.05;;;7.00;99.90;;;;;;4937508;29;20201;-70
2023/01/10 15:58:58;;;;;;;0.60;0.60;;;6.90;99.90;;;;;;4937381;29;20176;-70
2023/01/10 16:01:24;;;;;;;1.63;0.90;;;6.90;99.90;;;;;;4937307;29;20178;-70
2023/01/10 16:03:49;;;;;;;2.35;1.00;;;6.80;99.90;;;;;;4936840;29;20199;-72
2023/01/10 16:06:20;;;;;;;0.77;0.77;;;6.80;99.90;;;;;;4937325;29;20219;-70
2023/01/10 16:08:52;;;;;;;0.60;0.60;;;6.80;99.90;;;;;;4937723;29;20199;-69
2023/01/10 16:14:10;;;;;;;0.95;0.95;;;6.60;99.90;;;;;;4937219;29;20377;-69
2023/01/10 16:16:36;;;;;;;3.80;0.87;;;6.60;99.90;;;;;;4936990;29;20239;-70
2023/01/10 16:19:01;;;;;;;1.37;0.60;;;6.60;99.90;;;;;;4937331;29;20215;-70
2023/01/10 16:21:33;;;;;;;0.60;0.60;;;6.60;99.90;;;;;;4937168;29;20175;-71
2023/01/10 16:23:59;;;;;;;1.40;1.05;;;6.60;99.90;;;;;;4936816;29;20312;-72
2023/01/10 16:26:25;;;;;;;2.40;0.80;;;6.50;99.90;;;;;;4937515;29;20196;-72
2023/01/10 16:28:50;;;;;;;1.33;0.60;;;6.50;99.90;;;;;;4937118;29;20169;-70
2023/01/10 16:31:16;;;;;;;0.80;0.80;;;6.50;99.90;;;;;;4936227;29;20180;-71
2023/01/10 16:33:41;;;;;;;1.03;1.00;;;6.40;99.90;;;;;;4936250;29;20653;-70
2023/01/10 16:36:16;;;;;;;11.03;2.90;;;6.40;99.90;;;;;;4936754;29;20200;-70
2023/01/10 16:38:42;;;;;;;1.35;0.90;;;6.30;99.90;;;;;;4936790;29;20636;-69
2023/01/10 16:43:54;;;;;;;1.10;1.10;;;6.30;99.90;;;;;;4936650;29;20200;-68
2023/01/10 16:46:20;;;;;;;1.07;0.80;;;6.30;99.90;;;;;;4936394;29;20599;-68
2023/01/10 16:48:46;;;;;;;2.08;1.83;;;6.30;99.90;;;;;;4936642;29;20226;-69
2023/01/10 16:51:24;;;;;;;1.70;0.93;;;6.30;99.90;;;;;;4936592;29;20643;-69
2023/01/10 16:53:50;;;;;;;3.25;2.22;;;6.30;99.90;;;;;;4935654;29;20219;-69
2023/01/10 16:56:27;;;;;;;8.05;5.63;;;6.20;99.90;;;;;;4936595;29;20219;-68
2023/01/10 16:58:54;;;;;;;2.20;2.00;;;6.20;99.90;;;;;;4919474;29;20187;-70
2023/01/10 17:01:29;;;;;;;4.65;1.42;;;6.30;99.90;;;;;;4936573;29;20177;-68
2023/01/10 17:03:55;;;;;;;1.80;1.40;;;6.30;99.90;;;;;;4935916;29;20690;-67
2023/01/10 17:06:21;;;;;;;2.47;1.98;;;6.30;99.90;;;;;;4936346;29;20197;-68
2023/01/10 17:08:48;;;;;;;2.23;2.03;;;6.30;99.90;;;;;;4936484;29;20196;-69
2023/01/10 17:11:25;;;;;;;2.08;1.90;;;6.30;99.90;;;;;;4936298;29;20499;-68
2023/01/10 17:13:51;;;;;;;3.15;2.20;;;6.40;99.90;;;;;;4935566;29;20195;-71
2023/01/10 17:16:16;;;;;;;2.53;1.80;;;6.40;99.90;;;;;;4936174;29;20205;-72
2023/01/10 17:18:42;;;;;;;2.60;2.40;;;6.30;99.90;;;;;;4936258;29;20416;-72
2023/01/10 17:21:14;;;;;;;1.87;1.77;;;6.40;99.90;;;;;;4936219;29;20634;-70
2023/01/10 17:23:40;;;;;;;1.92;1.50;;;6.30;99.90;;;;;;4935966;29;20214;-68
2023/01/10 17:26:07;;;;;;;2.10;1.60;;;6.30;99.90;;;;;;4936045;29;20165;-68
2023/01/10 17:28:32;;;;;;;2.40;1.55;;;6.30;99.90;;;;;;4935954;29;20579;-73
2023/01/10 17:30:58;;;;;;;1.40;1.30;;;6.30;99.90;;;;;;4935061;29;20177;-67
2023/01/10 17:33:25;;;;;;;1.33;1.27;;;6.30;99.90;;;;;;4935859;29;20184;-68
2023/01/10 17:35:55;;;;;;;1.90;1.80;;;6.20;99.90;;;;;;4935847;29;20445;-67
2023/01/10 17:38:23;;;;;;;1.65;1.55;;;6.20;99.90;;;;;;4920049;29;20195;-69
2023/01/10 17:40:49;;;;;;;5.07;1.30;;;6.20;99.90;;;;;;4916943;29;20643;-68
2023/01/10 17:43:15;;;;;;;2.10;1.73;;;6.20;99.90;;;;;;4916685;29;20193;-69
2023/01/10 17:45:43;;;;;;;1.50;1.20;;;6.20;99.90;;;;;;4916785;29;20215;-70
2023/01/10 17:48:11;;;;;;;1.20;1.10;;;6.20;99.90;;;;;;4916961;29;20223;-69
2023/01/10 17:50:37;;;;;;;1.45;1.33;;;6.20;99.90;;;;;;4916741;29;20220;-66
2023/01/10 17:53:04;;;;;;;1.48;1.30;;;6.20;99.90;;;;;;4918641;29;20207;-67
2023/01/10 17:55:30;;;;;;;1.52;1.40;;;6.20;99.90;;;;;;4935932;29;20690;-68
2023/01/10 17:57:55;;;;;;;1.40;1.27;;;6.20;99.90;;;;;;4935824;29;20207;-68
2023/01/10 18:00:21;;;;;;;3.00;1.83;;;6.10;99.90;;;;;;4935667;29;20212;-69
2023/01/10 18:02:47;;;;;;;1.10;1.00;;;6.10;99.90;;;;;;4935519;29;20405;-68
2023/01/10 18:05:13;;;;;;;7.20;1.53;;;6.10;99.90;;;;;;4938853;29;20489;-68
2023/01/10 18:07:38;;;;;;;2.13;2.00;;;6.10;99.90;;;;;;4934033;29;20521;-68
2023/01/10 18:10:07;;;;;;;2.70;1.73;;;6.10;99.90;;;;;;4933420;29;20527;-66
2023/01/10 18:12:36;;;;;;;3.65;1.02;;;6.10;99.90;;;;;;4939574;29;20675;-67
2023/01/10 18:15:02;;;;;;;1.63;1.52;;;6.20;99.90;;;;;;4937624;29;20209;-67
2023/01/10 18:17:28;;;;;;;1.58;1.08;;;6.20;99.90;;;;;;4930958;29;20184;-67
2023/01/10 18:19:54;;;;;;;1.60;1.60;;;6.20;99.90;;;;;;4920343;29;20174;-65
2023/01/10 18:25:04;;;;;;;2.95;1.77;;;6.20;99.90;;;;;;4937152;29;20440;-67
2023/01/10 18:27:30;;;;;;;1.10;1.10;;;6.20;99.90;;;;;;4937373;29;20208;-67
2023/01/10 18:29:55;;;;;;;1.70;1.40;;;6.20;99.90;;;;;;4936761;29;20212;-67
2023/01/10 18:32:22;;;;;;;1.27;1.10;;;6.20;99.90;;;;;;4937345;29;20232;-67
2023/01/10 18:34:48;;;;;;;2.78;2.10;;;6.20;99.90;;;;;;4936809;29;20662;-67
2023/01/10 18:37:15;;;;;;;2.13;2.00;;;6.30;99.90;;;;;;4937708;29;20185;-67